sensor_id;sensor_type;location;lat;lon;timestamp;pressure;altitude;pressure_sealevel;temperature;humidity
60920;BME280;59039;52.108;19.942;2022-09-13T00:00:51;100499.42;;;11.51;74.67
60920;BME280;59039;52.108;19.942;2022-09-13T00:03:18;100496.38;;;11.48;74.60
60920;BME280;59039;52.108;19.942;2022-09-13T00:05:46;100491.02;;;11.46;74.57
60920;BME280;59039;52.108;19.942;2022-09-13T00:08:12;100487.49;;;11.43;74.62
60920;BME280;59039;52.108;19.942;2022-09-13T00:10:40;100484.31;;;11.41;74.61
60920;BME280;59039;52.108;19.942;2022-09-13T00:13:10;100487.80;;;11.38;74.66
60920;BME280;59039;52.108;19.942;2022-09-13T00:15:36;100492.32;;;11.37;74.61
60920;BME280;59039;52.108;19.942;2022-09-13T00:18:02;100490.59;;;11.34;74.83
60920;BME280;59039;52.108;19.942;2022-09-13T00:20:28;100489.52;;;11.33;74.77
60920;BME280;59039;52.108;19.942;2022-09-13T00:22:53;100490.44;;;11.31;74.85
60920;BME280;59039;52.108;19.942;2022-09-13T00:25:32;100494.57;;;11.29;74.72
60920;BME280;59039;52.108;19.942;2022-09-13T00:28:01;100497.02;;;11.26;74.95
60920;BME280;59039;52.108;19.942;2022-09-13T00:30:26;100496.06;;;11.25;74.95
60920;BME280;59039;52.108;19.942;2022-09-13T00:32:52;100492.59;;;11.24;74.85
60920;BME280;59039;52.108;19.942;2022-09-13T00:35:38;100490.91;;;11.22;75.03
60920;BME280;59039;52.108;19.942;2022-09-13T00:38:03;100491.73;;;11.20;74.79
60920;BME280;59039;52.108;19.942;2022-09-13T00:40:38;100494.98;;;11.18;75.05
60920;BME280;59039;52.108;19.942;2022-09-13T00:43:07;100498.95;;;11.16;75.00
60920;BME280;59039;52.108;19.942;2022-09-13T00:45:38;100493.49;;;11.15;75.09
60920;BME280;59039;52.108;19.942;2022-09-13T00:48:06;100493.13;;;11.13;75.09
60920;BME280;59039;52.108;19.942;2022-09-13T00:50:35;100494.08;;;11.11;75.05
60920;BME280;59039;52.108;19.942;2022-09-13T00:53:09;100494.26;;;11.09;75.01
60920;BME280;59039;52.108;19.942;2022-09-13T00:55:44;100492.23;;;11.07;75.06
60920;BME280;59039;52.108;19.942;2022-09-13T00:58:22;100492.32;;;11.05;74.93
60920;BME280;59039;52.108;19.942;2022-09-13T01:00:51;100486.82;;;11.02;75.01
60920;BME280;59039;52.108;19.942;2022-09-13T01:03:20;100480.67;;;10.98;75.27
60920;BME280;59039;52.108;19.942;2022-09-13T01:05:55;100480.59;;;10.97;75.18
60920;BME280;59039;52.108;19.942;2022-09-13T01:08:22;100477.92;;;10.95;75.41
60920;BME280;59039;52.108;19.942;2022-09-13T01:10:55;100479.27;;;10.94;75.38
60920;BME280;59039;52.108;19.942;2022-09-13T01:13:30;100473.64;;;10.93;75.36
60920;BME280;59039;52.108;19.942;2022-09-13T01:15:59;100470.54;;;10.91;75.30
60920;BME280;59039;52.108;19.942;2022-09-13T01:18:27;100467.98;;;10.89;75.38
60920;BME280;59039;52.108;19.942;2022-09-13T01:29:21;100458.70;;;10.82;75.41
60920;BME280;59039;52.108;19.942;2022-09-13T01:37:46;100452.75;;;10.75;75.42
60920;BME280;59039;52.108;19.942;2022-09-13T01:43:45;100452.50;;;10.70;75.68
60920;BME280;59039;52.108;19.942;2022-09-13T01:46:21;100452.95;;;10.68;75.66
60920;BME280;59039;52.108;19.942;2022-09-13T01:49:02;100444.16;;;10.65;75.50
60920;BME280;59039;52.108;19.942;2022-09-13T01:51:37;100440.75;;;10.63;75.76
60920;BME280;59039;52.108;19.942;2022-09-13T01:54:31;100437.12;;;10.61;75.72
60920;BME280;59039;52.108;19.942;2022-09-13T01:57:37;100431.96;;;10.58;75.90
60920;BME280;59039;52.108;19.942;2022-09-13T02:00:10;100436.73;;;10.56;75.61
60920;BME280;59039;52.108;19.942;2022-09-13T02:02:45;100436.37;;;10.54;75.66
60920;BME280;59039;52.108;19.942;2022-09-13T02:05:34;100433.50;;;10.52;75.66
60920;BME280;59039;52.108;19.942;2022-09-13T02:08:10;100428.08;;;10.50;75.82
60920;BME280;59039;52.108;19.942;2022-09-13T02:10:41;100424.39;;;10.49;75.60
60920;BME280;59039;52.108;19.942;2022-09-13T02:13:12;100424.83;;;10.48;75.41
60920;BME280;59039;52.108;19.942;2022-09-13T02:15:43;100424.92;;;10.45;75.12
60920;BME280;59039;52.108;19.942;2022-09-13T02:18:25;100422.79;;;10.43;75.24
60920;BME280;59039;52.108;19.942;2022-09-13T02:21:00;100424.66;;;10.41;75.45
60920;BME280;59039;52.108;19.942;2022-09-13T02:23:33;100422.57;;;10.40;75.46
60920;BME280;59039;52.108;19.942;2022-09-13T02:26:04;100420.90;;;10.38;75.57
60920;BME280;59039;52.108;19.942;2022-09-13T02:28:57;100418.30;;;10.37;75.39
60920;BME280;59039;52.108;19.942;2022-09-13T02:31:28;100413.15;;;10.35;75.53
60920;BME280;59039;52.108;19.942;2022-09-13T02:36:56;100409.80;;;10.30;75.54
60920;BME280;59039;52.108;19.942;2022-09-13T02:39:24;100407.96;;;10.28;75.48
60920;BME280;59039;52.108;19.942;2022-09-13T02:44:36;100404.78;;;10.24;75.50
60920;BME280;59039;52.108;19.942;2022-09-13T02:50:02;100399.33;;;10.18;75.61
60920;BME280;59039;52.108;19.942;2022-09-13T02:52:33;100396.98;;;10.17;75.48
60920;BME280;59039;52.108;19.942;2022-09-13T02:55:07;100393.02;;;10.15;75.33
60920;BME280;59039;52.108;19.942;2022-09-13T02:58:33;100385.98;;;10.12;75.45
60920;BME280;59039;52.108;19.942;2022-09-13T03:00:36;100383.89;;;10.10;75.57
60920;BME280;59039;52.108;19.942;2022-09-13T03:03:06;100378.66;;;10.08;75.59
60920;BME280;59039;52.108;19.942;2022-09-13T03:05:38;100380.08;;;10.07;75.60
60920;BME280;59039;52.108;19.942;2022-09-13T03:08:04;100380.55;;;10.05;75.64
60920;BME280;59039;52.108;19.942;2022-09-13T03:10:43;100382.46;;;10.04;75.69
60920;BME280;59039;52.108;19.942;2022-09-13T03:26:53;100380.51;;;9.91;75.56
60920;BME280;59039;52.108;19.942;2022-09-13T03:32:12;100376.65;;;9.86;75.54
60920;BME280;59039;52.108;19.942;2022-09-13T03:37:59;100379.72;;;9.82;75.65
60920;BME280;59039;52.108;19.942;2022-09-13T03:40:37;100372.70;;;9.80;75.70
60920;BME280;59039;52.108;19.942;2022-09-13T03:43:13;100365.66;;;9.78;75.68
60920;BME280;59039;52.108;19.942;2022-09-13T03:45:50;100365.80;;;9.77;75.50
60920;BME280;59039;52.108;19.942;2022-09-13T03:48:17;100361.29;;;9.73;75.60
60920;BME280;59039;52.108;19.942;2022-09-13T03:50:45;100355.02;;;9.71;75.53
60920;BME280;59039;52.108;19.942;2022-09-13T03:53:17;100360.20;;;9.69;75.62
60920;BME280;59039;52.108;19.942;2022-09-13T03:55:44;100357.20;;;9.67;75.64
60920;BME280;59039;52.108;19.942;2022-09-13T03:58:15;100355.94;;;9.65;75.71
60920;BME280;59039;52.108;19.942;2022-09-13T04:00:41;100356.65;;;9.63;75.65
60920;BME280;59039;52.108;19.942;2022-09-13T04:03:07;100358.58;;;9.60;75.78
60920;BME280;59039;52.108;19.942;2022-09-13T04:05:32;100358.11;;;9.57;75.71
60920;BME280;59039;52.108;19.942;2022-09-13T04:08:00;100360.18;;;9.55;75.86
60920;BME280;59039;52.108;19.942;2022-09-13T04:10:25;100357.57;;;9.54;75.95
60920;BME280;59039;52.108;19.942;2022-09-13T04:12:53;100356.24;;;9.52;76.00
60920;BME280;59039;52.108;19.942;2022-09-13T04:15:18;100358.42;;;9.50;75.96
60920;BME280;59039;52.108;19.942;2022-09-13T04:17:44;100356.27;;;9.48;76.10
60920;BME280;59039;52.108;19.942;2022-09-13T04:20:09;100356.00;;;9.47;76.15
60920;BME280;59039;52.108;19.942;2022-09-13T04:22:35;100347.31;;;9.46;76.10
60920;BME280;59039;52.108;19.942;2022-09-13T04:25:00;100349.91;;;9.45;76.04
60920;BME280;59039;52.108;19.942;2022-09-13T04:27:34;100349.79;;;9.45;76.11
60920;BME280;59039;52.108;19.942;2022-09-13T04:30:03;100345.92;;;9.44;76.23
60920;BME280;59039;52.108;19.942;2022-09-13T04:32:51;100342.48;;;9.41;76.14
60920;BME280;59039;52.108;19.942;2022-09-13T04:35:17;100336.67;;;9.39;76.01
60920;BME280;59039;52.108;19.942;2022-09-13T04:37:45;100341.27;;;9.39;76.23
60920;BME280;59039;52.108;19.942;2022-09-13T04:40:21;100340.64;;;9.38;76.10
60920;BME280;59039;52.108;19.942;2022-09-13T04:42:46;100333.29;;;9.37;76.06
60920;BME280;59039;52.108;19.942;2022-09-13T04:45:14;100335.77;;;9.36;76.15
60920;BME280;59039;52.108;19.942;2022-09-13T04:47:41;100334.56;;;9.35;76.41
60920;BME280;59039;52.108;19.942;2022-09-13T04:50:10;100333.39;;;9.36;76.57
60920;BME280;59039;52.108;19.942;2022-09-13T04:52:40;100330.73;;;9.39;76.59
60920;BME280;59039;52.108;19.942;2022-09-13T04:58:03;100322.89;;;9.42;76.73
60920;BME280;59039;52.108;19.942;2022-09-13T05:00:29;100324.07;;;9.45;76.85
60920;BME280;59039;52.108;19.942;2022-09-13T05:02:55;100329.83;;;9.47;77.02
60920;BME280;59039;52.108;19.942;2022-09-13T05:05:23;100331.03;;;9.51;77.15
60920;BME280;59039;52.108;19.942;2022-09-13T05:07:51;100330.39;;;9.56;77.25
60920;BME280;59039;52.108;19.942;2022-09-13T05:10:19;100327.23;;;9.61;77.31
60920;BME280;59039;52.108;19.942;2022-09-13T05:12:49;100323.68;;;9.66;77.46
60920;BME280;59039;52.108;19.942;2022-09-13T05:15:17;100323.48;;;9.71;77.56
60920;BME280;59039;52.108;19.942;2022-09-13T05:17:45;100328.44;;;9.78;77.55
60920;BME280;59039;52.108;19.942;2022-09-13T05:20:12;100328.40;;;9.83;77.54
60920;BME280;59039;52.108;19.942;2022-09-13T05:22:38;100320.51;;;9.88;77.49
60920;BME280;59039;52.108;19.942;2022-09-13T05:25:04;100318.30;;;9.94;77.35
60920;BME280;59039;52.108;19.942;2022-09-13T05:27:32;100321.17;;;10.00;77.57
60920;BME280;59039;52.108;19.942;2022-09-13T05:29:57;100318.53;;;10.06;77.45
60920;BME280;59039;52.108;19.942;2022-09-13T05:32:22;100317.20;;;10.12;77.57
60920;BME280;59039;52.108;19.942;2022-09-13T05:34:48;100314.95;;;10.18;77.54
60920;BME280;59039;52.108;19.942;2022-09-13T05:37:13;100315.52;;;10.23;77.48
60920;BME280;59039;52.108;19.942;2022-09-13T05:39:39;100318.66;;;10.29;77.56
60920;BME280;59039;52.108;19.942;2022-09-13T05:42:04;100313.34;;;10.35;77.60
60920;BME280;59039;52.108;19.942;2022-09-13T05:44:32;100319.82;;;10.40;77.59
60920;BME280;59039;52.108;19.942;2022-09-13T05:46:57;100315.48;;;10.46;77.79
60920;BME280;59039;52.108;19.942;2022-09-13T05:49:23;100314.92;;;10.53;77.64
60920;BME280;59039;52.108;19.942;2022-09-13T05:51:48;100315.79;;;10.59;77.53
60920;BME280;59039;52.108;19.942;2022-09-13T05:54:14;100314.23;;;10.65;77.76
60920;BME280;59039;52.108;19.942;2022-09-13T05:56:39;100317.19;;;10.72;77.83
60920;BME280;59039;52.108;19.942;2022-09-13T05:59:04;100317.70;;;10.79;77.90
60920;BME280;59039;52.108;19.942;2022-09-13T06:01:30;100315.10;;;10.84;77.81
60920;BME280;59039;52.108;19.942;2022-09-13T06:03:57;100314.36;;;10.92;77.75
60920;BME280;59039;52.108;19.942;2022-09-13T06:06:23;100315.36;;;10.99;78.02
60920;BME280;59039;52.108;19.942;2022-09-13T06:08:56;100314.75;;;11.07;78.00
60920;BME280;59039;52.108;19.942;2022-09-13T06:11:27;100315.11;;;11.14;77.80
60920;BME280;59039;52.108;19.942;2022-09-13T06:13:52;100309.34;;;11.21;77.93
60920;BME280;59039;52.108;19.942;2022-09-13T06:16:18;100306.92;;;11.28;77.87
60920;BME280;59039;52.108;19.942;2022-09-13T06:18:52;100307.30;;;11.35;77.81
60920;BME280;59039;52.108;19.942;2022-09-13T06:21:20;100301.60;;;11.43;77.81
60920;BME280;59039;52.108;19.942;2022-09-13T06:23:47;100300.09;;;11.50;77.68
60920;BME280;59039;52.108;19.942;2022-09-13T06:26:14;100301.02;;;11.57;77.92
60920;BME280;59039;52.108;19.942;2022-09-13T06:28:41;100299.14;;;11.64;77.92
60920;BME280;59039;52.108;19.942;2022-09-13T06:31:11;100301.13;;;11.72;77.92
60920;BME280;59039;52.108;19.942;2022-09-13T06:33:39;100300.74;;;11.83;77.87
60920;BME280;59039;52.108;19.942;2022-09-13T06:36:07;100298.36;;;11.93;77.85
60920;BME280;59039;52.108;19.942;2022-09-13T06:38:33;100302.10;;;12.07;77.88
60920;BME280;59039;52.108;19.942;2022-09-13T06:41:03;100298.23;;;12.21;77.87
60920;BME280;59039;52.108;19.942;2022-09-13T06:43:29;100296.44;;;12.37;77.84
60920;BME280;59039;52.108;19.942;2022-09-13T06:46:12;100289.70;;;12.54;77.79
60920;BME280;59039;52.108;19.942;2022-09-13T06:48:40;100287.73;;;12.73;77.86
60920;BME280;59039;52.108;19.942;2022-09-13T06:51:08;100289.80;;;12.89;77.75
60920;BME280;59039;52.108;19.942;2022-09-13T06:53:35;100283.26;;;13.03;77.43
60920;BME280;59039;52.108;19.942;2022-09-13T06:56:05;100282.61;;;13.17;77.58
60920;BME280;59039;52.108;19.942;2022-09-13T06:58:32;100276.93;;;13.30;77.31
60920;BME280;59039;52.108;19.942;2022-09-13T07:03:51;100271.88;;;13.57;77.21
60920;BME280;59039;52.108;19.942;2022-09-13T07:06:21;100275.30;;;13.68;77.08
60920;BME280;59039;52.108;19.942;2022-09-13T07:08:48;100277.37;;;13.78;76.74
60920;BME280;59039;52.108;19.942;2022-09-13T07:11:15;100276.26;;;13.88;76.43
60920;BME280;59039;52.108;19.942;2022-09-13T07:13:40;100272.61;;;13.97;76.27
60920;BME280;59039;52.108;19.942;2022-09-13T07:16:08;100273.89;;;14.05;76.05
60920;BME280;59039;52.108;19.942;2022-09-13T07:18:33;100268.89;;;14.13;75.72
60920;BME280;59039;52.108;19.942;2022-09-13T07:21:04;100265.75;;;14.22;75.77
60920;BME280;59039;52.108;19.942;2022-09-13T07:23:31;100264.08;;;14.30;75.51
60920;BME280;59039;52.108;19.942;2022-09-13T07:25:58;100260.36;;;14.36;75.64
60920;BME280;59039;52.108;19.942;2022-09-13T07:28:24;100257.59;;;14.43;75.55
60920;BME280;59039;52.108;19.942;2022-09-13T07:30:49;100254.95;;;14.49;75.25
60920;BME280;59039;52.108;19.942;2022-09-13T07:33:14;100253.85;;;14.54;75.10
60920;BME280;59039;52.108;19.942;2022-09-13T07:35:39;100257.17;;;14.60;75.04
60920;BME280;59039;52.108;19.942;2022-09-13T07:38:07;100260.52;;;14.66;74.95
60920;BME280;59039;52.108;19.942;2022-09-13T07:40:37;100261.23;;;14.70;74.90
60920;BME280;59039;52.108;19.942;2022-09-13T07:43:03;100260.03;;;14.74;74.62
60920;BME280;59039;52.108;19.942;2022-09-13T07:45:28;100262.28;;;14.78;74.37
60920;BME280;59039;52.108;19.942;2022-09-13T07:47:56;100261.77;;;14.82;74.21
60920;BME280;59039;52.108;19.942;2022-09-13T07:50:21;100262.98;;;14.86;74.42
60920;BME280;59039;52.108;19.942;2022-09-13T07:52:54;100258.16;;;14.90;74.36
60920;BME280;59039;52.108;19.942;2022-09-13T07:55:19;100260.03;;;14.94;74.21
60920;BME280;59039;52.108;19.942;2022-09-13T07:57:45;100259.67;;;14.98;74.08
60920;BME280;59039;52.108;19.942;2022-09-13T08:00:11;100261.05;;;15.02;74.05
60920;BME280;59039;52.108;19.942;2022-09-13T08:02:39;100263.46;;;15.06;73.84
60920;BME280;59039;52.108;19.942;2022-09-13T08:05:05;100258.81;;;15.10;74.15
60920;BME280;59039;52.108;19.942;2022-09-13T08:07:30;100253.00;;;15.14;74.47
60920;BME280;59039;52.108;19.942;2022-09-13T08:09:57;100255.94;;;15.18;74.26
60920;BME280;59039;52.108;19.942;2022-09-13T08:12:23;100254.39;;;15.22;74.37
60920;BME280;59039;52.108;19.942;2022-09-13T08:14:51;100251.95;;;15.25;74.45
60920;BME280;59039;52.108;19.942;2022-09-13T08:17:16;100256.06;;;15.31;74.30
60920;BME280;59039;52.108;19.942;2022-09-13T08:19:44;100254.40;;;15.35;74.48
60920;BME280;59039;52.108;19.942;2022-09-13T08:22:10;100256.27;;;15.41;74.59
60920;BME280;59039;52.108;19.942;2022-09-13T08:24:35;100246.09;;;15.44;74.48
60920;BME280;59039;52.108;19.942;2022-09-13T08:27:00;100247.64;;;15.50;74.54
60920;BME280;59039;52.108;19.942;2022-09-13T08:29:28;100242.39;;;15.55;74.37
60920;BME280;59039;52.108;19.942;2022-09-13T08:31:53;100244.04;;;15.61;74.50
60920;BME280;59039;52.108;19.942;2022-09-13T08:34:24;100242.78;;;15.67;74.59
60920;BME280;59039;52.108;19.942;2022-09-13T08:36:49;100240.91;;;15.73;74.72
60920;BME280;59039;52.108;19.942;2022-09-13T08:39:14;100235.59;;;15.79;74.42
60920;BME280;59039;52.108;19.942;2022-09-13T08:44:29;100233.06;;;15.92;74.41
60920;BME280;59039;52.108;19.942;2022-09-13T08:49:41;100227.98;;;16.05;74.00
60920;BME280;59039;52.108;19.942;2022-09-13T08:54:38;100217.69;;;16.14;74.21
60920;BME280;59039;52.108;19.942;2022-09-13T09:02:34;100207.53;;;16.33;74.66
60920;BME280;59039;52.108;19.942;2022-09-13T09:05:16;100212.02;;;16.40;74.30
60920;BME280;59039;52.108;19.942;2022-09-13T09:07:48;100204.84;;;16.46;74.13
60920;BME280;59039;52.108;19.942;2022-09-13T09:10:19;100204.98;;;16.51;74.13
60920;BME280;59039;52.108;19.942;2022-09-13T09:12:49;100201.14;;;16.57;73.87
60920;BME280;59039;52.108;19.942;2022-09-13T09:15:20;100193.92;;;16.63;73.92
60920;BME280;59039;52.108;19.942;2022-09-13T09:20:41;100189.01;;;16.73;73.43
60920;BME280;59039;52.108;19.942;2022-09-13T09:23:15;100187.10;;;16.78;73.74
60920;BME280;59039;52.108;19.942;2022-09-13T09:25:41;100183.55;;;16.83;73.83
60920;BME280;59039;52.108;19.942;2022-09-13T09:28:14;100180.57;;;16.87;73.72
60920;BME280;59039;52.108;19.942;2022-09-13T09:30:59;100173.92;;;16.92;73.63
60920;BME280;59039;52.108;19.942;2022-09-13T09:36:22;100171.15;;;17.01;73.33
60920;BME280;59039;52.108;19.942;2022-09-13T09:38:51;100171.03;;;17.04;72.77
60920;BME280;59039;52.108;19.942;2022-09-13T09:41:30;100170.50;;;17.08;72.62
60920;BME280;59039;52.108;19.942;2022-09-13T09:44:17;100165.59;;;17.12;72.25
60920;BME280;59039;52.108;19.942;2022-09-13T09:46:47;100163.61;;;17.16;72.05
60920;BME280;59039;52.108;19.942;2022-09-13T09:49:18;100162.79;;;17.20;72.02
60920;BME280;59039;52.108;19.942;2022-09-13T09:51:45;100160.17;;;17.23;71.52
60920;BME280;59039;52.108;19.942;2022-09-13T09:54:11;100162.30;;;17.26;71.45
60920;BME280;59039;52.108;19.942;2022-09-13T09:56:51;100162.06;;;17.29;71.36
60920;BME280;59039;52.108;19.942;2022-09-13T09:59:42;100157.50;;;17.31;70.63
60920;BME280;59039;52.108;19.942;2022-09-13T10:02:16;100149.55;;;17.35;70.57
60920;BME280;59039;52.108;19.942;2022-09-13T10:04:53;100147.73;;;17.38;70.30
60920;BME280;59039;52.108;19.942;2022-09-13T10:07:27;100146.71;;;17.40;69.88
60920;BME280;59039;52.108;19.942;2022-09-13T10:10:23;100144.27;;;17.42;69.67
60920;BME280;59039;52.108;19.942;2022-09-13T10:12:51;100139.43;;;17.45;69.59
60920;BME280;59039;52.108;19.942;2022-09-13T10:15:19;100140.45;;;17.47;69.86
60920;BME280;59039;52.108;19.942;2022-09-13T10:18:13;100138.47;;;17.49;70.04
60920;BME280;59039;52.108;19.942;2022-09-13T10:20:39;100135.94;;;17.53;70.22
60920;BME280;59039;52.108;19.942;2022-09-13T10:25:39;100135.45;;;17.60;70.16
60920;BME280;59039;52.108;19.942;2022-09-13T10:28:11;100138.08;;;17.63;70.11
60920;BME280;59039;52.108;19.942;2022-09-13T10:30:41;100135.81;;;17.66;69.24
60920;BME280;59039;52.108;19.942;2022-09-13T10:33:29;100132.03;;;17.68;69.03
60920;BME280;59039;52.108;19.942;2022-09-13T10:35:58;100129.52;;;17.69;68.67
60920;BME280;59039;52.108;19.942;2022-09-13T10:38:29;100119.54;;;17.71;68.70
60920;BME280;59039;52.108;19.942;2022-09-13T10:40:55;100120.05;;;17.74;68.58
60920;BME280;59039;52.108;19.942;2022-09-13T10:43:22;100119.50;;;17.76;67.90
60920;BME280;59039;52.108;19.942;2022-09-13T10:45:48;100112.23;;;17.78;68.37
60920;BME280;59039;52.108;19.942;2022-09-13T10:48:16;100110.48;;;17.80;67.84
60920;BME280;59039;52.108;19.942;2022-09-13T10:51:06;100108.54;;;17.82;67.90
60920;BME280;59039;52.108;19.942;2022-09-13T10:53:38;100100.46;;;17.85;67.84
60920;BME280;59039;52.108;19.942;2022-09-13T10:56:07;100096.92;;;17.87;68.15
60920;BME280;59039;52.108;19.942;2022-09-13T10:58:42;100095.70;;;17.89;67.65
60920;BME280;59039;52.108;19.942;2022-09-13T11:01:55;100093.70;;;17.92;67.36
60920;BME280;59039;52.108;19.942;2022-09-13T11:07:16;100080.98;;;17.96;67.11
60920;BME280;59039;52.108;19.942;2022-09-13T11:09:54;100084.02;;;17.98;66.96
60920;BME280;59039;52.108;19.942;2022-09-13T11:15:35;100077.55;;;18.01;66.08
60920;BME280;59039;52.108;19.942;2022-09-13T11:18:59;100075.85;;;18.03;66.07
60920;BME280;59039;52.108;19.942;2022-09-13T11:27:14;100071.25;;;18.10;65.96
60920;BME280;59039;52.108;19.942;2022-09-13T11:30:15;100067.94;;;18.12;65.62
60920;BME280;59039;52.108;19.942;2022-09-13T11:41:04;100052.39;;;18.22;64.08
60920;BME280;59039;52.108;19.942;2022-09-13T11:43:50;100044.23;;;18.24;64.47
60920;BME280;59039;52.108;19.942;2022-09-13T11:49:33;100039.65;;;18.26;64.86
60920;BME280;59039;52.108;19.942;2022-09-13T11:57:12;100022.67;;;18.29;65.00
60920;BME280;59039;52.108;19.942;2022-09-13T12:02:46;100004.69;;;18.31;64.86
60920;BME280;59039;52.108;19.942;2022-09-13T12:05:18;99998.62;;;18.32;65.13
60920;BME280;59039;52.108;19.942;2022-09-13T12:13:13;99983.63;;;18.36;64.81
60920;BME280;59039;52.108;19.942;2022-09-13T12:15:41;99973.55;;;18.37;65.25
60920;BME280;59039;52.108;19.942;2022-09-13T12:18:31;99950.14;;;18.39;65.40
60920;BME280;59039;52.108;19.942;2022-09-13T12:21:03;99951.23;;;18.41;64.83
60920;BME280;59039;52.108;19.942;2022-09-13T12:23:36;99959.79;;;18.41;64.45
60920;BME280;59039;52.108;19.942;2022-09-13T12:26:09;99962.44;;;18.42;64.43
60920;BME280;59039;52.108;19.942;2022-09-13T12:28:44;99958.14;;;18.42;64.28
60920;BME280;59039;52.108;19.942;2022-09-13T12:31:15;99950.92;;;18.44;64.44
60920;BME280;59039;52.108;19.942;2022-09-13T12:33:41;99948.92;;;18.45;64.58
60920;BME280;59039;52.108;19.942;2022-09-13T12:42:15;99951.55;;;18.47;64.16
60920;BME280;59039;52.108;19.942;2022-09-13T12:47:46;99948.29;;;18.49;64.17
60920;BME280;59039;52.108;19.942;2022-09-13T13:01:20;99939.77;;;18.49;63.51
60920;BME280;59039;52.108;19.942;2022-09-13T13:03:57;99941.05;;;18.49;63.41
60920;BME280;59039;52.108;19.942;2022-09-13T13:06:40;99939.18;;;18.49;63.66
60920;BME280;59039;52.108;19.942;2022-09-13T13:09:41;99937.27;;;18.50;63.56
60920;BME280;59039;52.108;19.942;2022-09-13T13:12:24;99935.52;;;18.50;63.29
60920;BME280;59039;52.108;19.942;2022-09-13T13:14:51;99937.23;;;18.51;63.28
60920;BME280;59039;52.108;19.942;2022-09-13T13:17:40;99936.08;;;18.52;63.42
60920;BME280;59039;52.108;19.942;2022-09-13T13:26:11;99931.61;;;18.53;63.80
60920;BME280;59039;52.108;19.942;2022-09-13T13:34:00;99921.83;;;18.55;64.00
60920;BME280;59039;52.108;19.942;2022-09-13T13:39:08;99912.73;;;18.55;63.85
60920;BME280;59039;52.108;19.942;2022-09-13T13:44:00;99906.21;;;18.54;63.81
60920;BME280;59039;52.108;19.942;2022-09-13T13:46:31;99903.20;;;18.54;63.78
60920;BME280;59039;52.108;19.942;2022-09-13T13:57:23;99895.06;;;18.56;64.11
60920;BME280;59039;52.108;19.942;2022-09-13T13:59:53;99888.13;;;18.56;64.14
60920;BME280;59039;52.108;19.942;2022-09-13T14:02:24;99890.73;;;18.57;64.39
60920;BME280;59039;52.108;19.942;2022-09-13T14:16:28;99880.85;;;18.62;64.38
60920;BME280;59039;52.108;19.942;2022-09-13T14:21:43;99869.70;;;18.64;64.28
60920;BME280;59039;52.108;19.942;2022-09-13T14:24:16;99869.14;;;18.65;64.17
60920;BME280;59039;52.108;19.942;2022-09-13T14:26:43;99867.07;;;18.66;64.14
60920;BME280;59039;52.108;19.942;2022-09-13T14:29:08;99864.02;;;18.67;64.09
60920;BME280;59039;52.108;19.942;2022-09-13T14:31:34;99858.30;;;18.67;64.18
60920;BME280;59039;52.108;19.942;2022-09-13T14:34:03;99857.66;;;18.68;64.30
60920;BME280;59039;52.108;19.942;2022-09-13T14:36:37;99857.88;;;18.67;64.38
60920;BME280;59039;52.108;19.942;2022-09-13T14:39:07;99856.23;;;18.67;64.10
60920;BME280;59039;52.108;19.942;2022-09-13T14:41:36;99853.30;;;18.67;64.39
60920;BME280;59039;52.108;19.942;2022-09-13T14:44:23;99849.79;;;18.67;64.34
60920;BME280;59039;52.108;19.942;2022-09-13T14:47:00;99845.27;;;18.67;64.21
60920;BME280;59039;52.108;19.942;2022-09-13T14:49:33;99837.71;;;18.67;64.38
60920;BME280;59039;52.108;19.942;2022-09-13T14:52:06;99834.50;;;18.67;64.29
60920;BME280;59039;52.108;19.942;2022-09-13T14:54:42;99827.30;;;18.67;64.10
60920;BME280;59039;52.108;19.942;2022-09-13T14:57:18;99824.50;;;18.66;64.11
60920;BME280;59039;52.108;19.942;2022-09-13T14:59:52;99826.39;;;18.66;63.98
60920;BME280;59039;52.108;19.942;2022-09-13T15:02:21;99826.38;;;18.66;63.91
60920;BME280;59039;52.108;19.942;2022-09-13T15:04:53;99819.77;;;18.66;64.37
60920;BME280;59039;52.108;19.942;2022-09-13T15:07:22;99821.98;;;18.66;64.53
60920;BME280;59039;52.108;19.942;2022-09-13T15:09:55;99828.33;;;18.65;64.36
60920;BME280;59039;52.108;19.942;2022-09-13T15:12:24;99827.69;;;18.66;64.57
60920;BME280;59039;52.108;19.942;2022-09-13T15:15:23;99822.36;;;18.64;64.47
60920;BME280;59039;52.108;19.942;2022-09-13T15:18:02;99815.67;;;18.63;65.06
60920;BME280;59039;52.108;19.942;2022-09-13T15:23:30;99816.16;;;18.61;64.86
60920;BME280;59039;52.108;19.942;2022-09-13T15:31:07;99812.36;;;18.58;65.20
60920;BME280;59039;52.108;19.942;2022-09-13T15:33:34;99811.70;;;18.57;65.34
60920;BME280;59039;52.108;19.942;2022-09-13T15:39:02;99797.99;;;18.54;65.27
60920;BME280;59039;52.108;19.942;2022-09-13T15:41:39;99797.71;;;18.52;65.25
60920;BME280;59039;52.108;19.942;2022-09-13T15:44:07;99799.38;;;18.51;65.46
60920;BME280;59039;52.108;19.942;2022-09-13T15:46:49;99794.82;;;18.49;65.62
60920;BME280;59039;52.108;19.942;2022-09-13T15:49:17;99800.72;;;18.48;65.48
60920;BME280;59039;52.108;19.942;2022-09-13T15:51:46;99791.95;;;18.46;65.49
60920;BME280;59039;52.108;19.942;2022-09-13T15:54:16;99791.25;;;18.45;65.94
60920;BME280;59039;52.108;19.942;2022-09-13T15:56:46;99788.88;;;18.43;66.01
60920;BME280;59039;52.108;19.942;2022-09-13T15:59:13;99790.16;;;18.42;66.56
60920;BME280;59039;52.108;19.942;2022-09-13T16:01:40;99786.87;;;18.41;66.56
60920;BME280;59039;52.108;19.942;2022-09-13T16:04:05;99781.89;;;18.40;66.67